createdAt,value
2022-09-27T00:01:57.854Z,99.90
2022-09-27T00:04:26.084Z,99.90
2022-09-27T00:06:55.546Z,99.90
2022-09-27T00:09:23.646Z,99.90
2022-09-27T00:11:51.615Z,99.90
2022-09-27T00:14:19.982Z,99.90
2022-09-27T00:16:47.960Z,99.90
2022-09-27T00:19:18.595Z,99.90
2022-09-27T00:21:47.900Z,99.90
2022-09-27T00:24:19.148Z,99.90
2022-09-27T00:26:47.749Z,99.90
2022-09-27T00:29:17.204Z,99.90
2022-09-27T00:31:45.842Z,99.90
2022-09-27T00:34:21.239Z,99.90
2022-09-27T00:36:49.611Z,99.90
2022-09-27T00:39:21.188Z,99.90
2022-09-27T00:41:49.405Z,99.90
2022-09-27T00:45:00.377Z,99.90
2022-09-27T00:47:33.456Z,99.90
2022-09-27T00:50:08.334Z,99.90
2022-09-27T00:52:42.988Z,99.90
2022-09-27T00:55:17.276Z,99.90
2022-09-27T00:57:47.319Z,99.90
2022-09-27T01:00:16.560Z,99.90
2022-09-27T01:02:48.191Z,99.90
2022-09-27T01:05:20.366Z,99.90
2022-09-27T01:07:48.454Z,99.90
2022-09-27T01:10:19.453Z,99.90
2022-09-27T01:13:00.497Z,99.90
2022-09-27T01:15:37.102Z,99.90
2022-09-27T01:18:18.689Z,99.90
2022-09-27T01:21:18.686Z,99.90
2022-09-27T01:24:04.531Z,99.90
2022-09-27T01:27:02.514Z,99.90
2022-09-27T01:29:44.086Z,99.90
2022-09-27T01:32:20.071Z,99.90
2022-09-27T01:34:54.514Z,99.90
2022-09-27T01:37:33.874Z,99.90
2022-09-27T01:40:07.002Z,99.90
2022-09-27T01:42:41.831Z,99.90
2022-09-27T01:45:15.495Z,99.90
2022-09-27T01:47:49.692Z,99.90
2022-09-27T01:50:22.515Z,99.90
2022-09-27T01:52:54.380Z,99.90
2022-09-27T01:55:27.418Z,99.90
2022-09-27T01:58:00.132Z,99.90
2022-09-27T02:00:28.386Z,99.90
2022-09-27T02:03:02.777Z,99.90
2022-09-27T02:05:34.016Z,99.90
2022-09-27T02:08:05.827Z,99.90
2022-09-27T02:10:39.118Z,99.90
2022-09-27T02:13:14.456Z,99.90
2022-09-27T02:15:53.516Z,99.90
2022-09-27T02:18:31.012Z,99.90
2022-09-27T02:21:03.318Z,99.90
2022-09-27T02:23:36.340Z,99.90
2022-09-27T02:26:10.819Z,99.90
2022-09-27T02:28:43.220Z,99.90
2022-09-27T02:31:11.702Z,99.90
2022-09-27T02:33:47.169Z,99.90
2022-09-27T02:36:15.560Z,99.90
2022-09-27T02:38:44.985Z,99.90
2022-09-27T02:41:17.056Z,99.90
2022-09-27T02:43:49.416Z,99.90
2022-09-27T02:46:39.281Z,99.90
2022-09-27T02:49:20.412Z,99.90
2022-09-27T02:51:59.240Z,99.90
2022-09-27T02:54:36.361Z,99.90
2022-09-27T02:57:16.729Z,99.90
2022-09-27T02:59:51.136Z,99.90
2022-09-27T03:02:27.610Z,99.90
2022-09-27T03:05:00.832Z,99.90
2022-09-27T03:07:29.005Z,99.90
2022-09-27T03:09:57.060Z,99.90
2022-09-27T03:12:26.969Z,99.90
2022-09-27T03:14:56.237Z,99.90
2022-09-27T03:17:24.233Z,99.90
2022-09-27T03:19:52.219Z,99.90
2022-09-27T03:22:21.664Z,99.90
2022-09-27T03:24:50.193Z,99.90
2022-09-27T03:27:18.165Z,99.90
2022-09-27T03:29:46.132Z,99.90
2022-09-27T03:32:14.082Z,99.90
2022-09-27T03:34:42.108Z,99.90
2022-09-27T03:37:10.190Z,99.90
2022-09-27T03:39:40.599Z,99.90
2022-09-27T03:42:08.623Z,99.90
2022-09-27T03:44:36.997Z,99.90
2022-09-27T03:47:05.088Z,99.90
2022-09-27T03:49:36.025Z,99.90
2022-09-27T03:52:04.050Z,99.90
2022-09-27T03:54:32.667Z,99.90
2022-09-27T03:57:02.026Z,99.90
2022-09-27T03:59:30.031Z,99.90
2022-09-27T04:01:58.020Z,99.90
2022-09-27T04:04:25.959Z,99.90
2022-09-27T04:06:53.954Z,99.90
2022-09-27T04:09:21.951Z,99.90
2022-09-27T04:11:51.466Z,99.90
2022-09-27T04:14:20.800Z,99.90
2022-09-27T04:16:49.115Z,99.90
2022-09-27T04:19:17.187Z,99.90
2022-09-27T04:21:45.186Z,99.90
2022-09-27T04:24:13.295Z,99.90
2022-09-27T04:26:41.278Z,99.90
2022-09-27T04:29:10.222Z,99.90
2022-09-27T04:31:39.909Z,99.90
2022-09-27T04:34:07.937Z,99.90
2022-09-27T04:36:35.177Z,99.90
2022-09-27T04:39:05.807Z,99.90
2022-09-27T04:41:35.504Z,99.90
2022-09-27T04:44:03.841Z,99.90
2022-09-27T04:46:32.112Z,99.90
2022-09-27T04:49:02.132Z,99.90
2022-09-27T04:51:30.217Z,99.90
2022-09-27T04:53:58.605Z,99.90
2022-09-27T04:56:26.705Z,99.90
2022-09-27T04:58:54.953Z,99.90
2022-09-27T05:01:23.336Z,99.90
2022-09-27T05:03:51.414Z,99.90
2022-09-27T05:06:20.806Z,99.90
2022-09-27T05:08:48.883Z,99.90
2022-09-27T05:11:16.881Z,99.90
2022-09-27T05:13:44.918Z,99.90
2022-09-27T05:16:12.933Z,99.90
2022-09-27T05:18:40.989Z,99.90
2022-09-27T05:21:09.103Z,99.90
2022-09-27T05:23:38.547Z,99.90
2022-09-27T05:26:07.467Z,99.90
2022-09-27T05:28:36.191Z,99.90
2022-09-27T05:31:04.273Z,99.90
2022-09-27T05:33:35.323Z,99.90
2022-09-27T05:36:04.473Z,99.90
2022-09-27T05:38:32.585Z,99.90
2022-09-27T05:41:02.048Z,99.90
2022-09-27T05:43:31.653Z,99.90
2022-09-27T05:46:00.775Z,99.90
2022-09-27T05:48:30.233Z,99.90
2022-09-27T05:50:58.259Z,99.90
2022-09-27T05:53:26.303Z,99.90
2022-09-27T05:55:54.323Z,99.90
2022-09-27T05:58:23.721Z,99.90
2022-09-27T06:00:53.203Z,99.90
2022-09-27T06:03:21.281Z,99.90
2022-09-27T06:05:51.467Z,99.90
2022-09-27T06:08:20.704Z,99.90
2022-09-27T06:10:49.043Z,99.90
2022-09-27T06:13:18.526Z,99.90
2022-09-27T06:15:49.539Z,99.90
2022-09-27T06:18:18.143Z,99.90
2022-09-27T06:20:46.932Z,99.90
2022-09-27T06:23:17.368Z,99.90
2022-09-27T06:25:46.664Z,99.90
2022-09-27T06:28:20.580Z,99.90
2022-09-27T06:30:51.617Z,99.90
2022-09-27T06:33:20.833Z,99.90
2022-09-27T06:35:50.119Z,99.90
2022-09-27T06:38:21.152Z,99.90
2022-09-27T06:40:49.803Z,99.90
2022-09-27T06:43:19.746Z,99.90
2022-09-27T06:45:50.391Z,99.90
2022-09-27T06:48:21.233Z,99.90
2022-09-27T06:50:52.243Z,99.90
2022-09-27T06:53:22.181Z,99.90
2022-09-27T06:55:51.238Z,99.90
2022-09-27T06:58:37.154Z,99.90
2022-09-27T07:01:06.664Z,99.90
2022-09-27T07:03:40.910Z,99.90
2022-09-27T07:06:17.056Z,99.90
2022-09-27T07:08:45.139Z,99.90
2022-09-27T07:11:13.130Z,99.90
2022-09-27T07:13:44.032Z,99.90
2022-09-27T07:16:14.536Z,99.90
2022-09-27T07:18:45.481Z,99.90
2022-09-27T07:21:13.723Z,99.90
2022-09-27T07:23:41.747Z,99.90
2022-09-27T07:26:11.185Z,99.90
2022-09-27T07:28:42.770Z,99.90
2022-09-27T07:31:11.590Z,99.90
2022-09-27T07:33:43.229Z,99.90
2022-09-27T07:36:12.973Z,99.90
2022-09-27T07:38:41.278Z,99.90
2022-09-27T07:41:11.021Z,99.90
2022-09-27T07:43:39.044Z,99.90
2022-09-27T07:46:08.017Z,99.90
2022-09-27T07:48:36.117Z,99.90
2022-09-27T07:51:07.703Z,99.90
2022-09-27T07:53:35.698Z,99.90
2022-09-27T07:56:03.926Z,99.90
2022-09-27T07:58:33.315Z,99.90
2022-09-27T08:01:03.741Z,99.90
2022-09-27T08:03:34.823Z,99.90
2022-09-27T08:06:05.321Z,99.90
2022-09-27T08:08:36.179Z,99.90
2022-09-27T08:11:16.608Z,99.90
2022-09-27T08:13:46.248Z,99.90
2022-09-27T08:16:17.251Z,99.90
2022-09-27T08:18:45.265Z,99.90
2022-09-27T08:21:14.682Z,99.90
2022-09-27T08:23:42.903Z,99.90
2022-09-27T08:26:13.366Z,99.90
2022-09-27T08:28:41.376Z,99.90
2022-09-27T08:31:09.380Z,99.90
2022-09-27T08:33:41.435Z,99.90
2022-09-27T08:36:12.470Z,99.90
2022-09-27T08:38:43.887Z,99.90
2022-09-27T08:41:17.891Z,99.90
2022-09-27T08:43:52.579Z,99.90
2022-09-27T08:46:33.167Z,99.90
2022-09-27T08:49:06.997Z,99.90
2022-09-27T08:51:40.753Z,99.90
2022-09-27T08:54:17.585Z,99.90
2022-09-27T08:56:45.735Z,99.90
2022-09-27T08:59:16.503Z,99.90
2022-09-27T09:01:44.778Z,99.90
2022-09-27T09:04:16.002Z,99.90
2022-09-27T09:06:52.658Z,99.90
2022-09-27T09:09:32.765Z,99.90
2022-09-27T09:12:29.431Z,99.90
2022-09-27T09:15:13.605Z,99.90
2022-09-27T09:17:59.989Z,99.90
2022-09-27T09:20:40.877Z,99.90
2022-09-27T09:23:42.266Z,99.90
2022-09-27T09:26:20.970Z,99.90
2022-09-27T09:29:03.732Z,99.90
2022-09-27T09:31:38.482Z,99.90
2022-09-27T09:34:17.667Z,99.90
2022-09-27T09:36:49.878Z,99.90
2022-09-27T09:39:23.490Z,99.90
2022-09-27T09:42:14.393Z,99.90
2022-09-27T09:44:48.624Z,99.90
2022-09-27T09:47:26.051Z,99.90
2022-09-27T09:49:58.597Z,99.90
2022-09-27T09:52:33.863Z,99.90
2022-09-27T09:55:08.631Z,99.90
2022-09-27T09:57:44.000Z,99.90
2022-09-27T10:00:18.447Z,99.90
2022-09-27T10:02:52.900Z,99.90
2022-09-27T10:05:25.686Z,99.90
2022-09-27T10:08:00.439Z,99.90
2022-09-27T10:10:28.996Z,99.90
2022-09-27T10:12:58.706Z,99.90
2022-09-27T10:15:30.867Z,99.90
2022-09-27T10:18:01.740Z,99.90
2022-09-27T10:20:34.149Z,99.90
2022-09-27T10:23:08.025Z,99.90
2022-09-27T10:25:52.272Z,99.90
2022-09-27T10:28:37.433Z,99.90
2022-09-27T10:31:07.394Z,99.90
2022-09-27T10:33:38.187Z,99.90
2022-09-27T10:36:22.917Z,99.90
2022-09-27T10:38:56.738Z,99.90
2022-09-27T10:41:28.946Z,99.90
2022-09-27T10:43:58.388Z,99.90
2022-09-27T10:46:28.581Z,99.90
2022-09-27T10:49:18.235Z,99.90
2022-09-27T10:51:51.646Z,99.90
2022-09-27T10:54:28.641Z,99.90
2022-09-27T10:57:02.366Z,99.90
2022-09-27T10:59:35.089Z,99.90
2022-09-27T11:02:03.704Z,99.90
2022-09-27T11:04:33.953Z,99.90
2022-09-27T11:07:16.387Z,99.90
2022-09-27T11:09:50.012Z,99.90
2022-09-27T11:12:20.771Z,99.90
2022-09-27T11:14:57.028Z,99.90
2022-09-27T11:17:35.258Z,99.90
2022-09-27T11:20:17.464Z,99.90
2022-09-27T11:23:16.115Z,99.90
2022-09-27T11:25:58.504Z,99.90
2022-09-27T11:28:37.691Z,99.90
2022-09-27T11:31:19.434Z,99.90
2022-09-27T11:34:18.342Z,99.90
2022-09-27T11:36:59.176Z,99.90
2022-09-27T11:39:36.506Z,99.90
2022-09-27T11:42:23.678Z,99.90
2022-09-27T11:45:41.293Z,99.90
2022-09-27T11:48:12.833Z,99.90
2022-09-27T11:51:01.896Z,99.90
2022-09-27T11:53:47.447Z,99.90
2022-09-27T11:56:26.021Z,99.90
2022-09-27T11:59:06.854Z,99.90
2022-09-27T12:01:42.396Z,99.90
2022-09-27T12:04:47.468Z,99.90
2022-09-27T12:07:23.114Z,99.90
2022-09-27T12:09:54.454Z,99.90
2022-09-27T12:12:25.947Z,99.90
2022-09-27T12:14:56.929Z,95.90
2022-09-27T12:17:28.763Z,95.90
2022-09-27T12:20:04.412Z,93.60
2022-09-27T12:22:58.203Z,93.80
2022-09-27T12:25:29.944Z,92.30
2022-09-27T12:28:04.469Z,92.30
2022-09-27T12:30:36.313Z,93.30
2022-09-27T12:33:10.177Z,93.30
2022-09-27T12:35:47.846Z,94.30
2022-09-27T12:38:20.845Z,93.60
2022-09-27T12:40:53.222Z,92.00
2022-09-27T12:43:23.698Z,90.50
2022-09-27T12:46:00.652Z,93.50
2022-09-27T12:48:37.008Z,93.10
2022-09-27T12:51:10.190Z,93.40
2022-09-27T12:53:57.191Z,93.30
2022-09-27T12:56:36.959Z,95.30
2022-09-27T12:59:23.929Z,96.10
2022-09-27T13:02:18.227Z,99.20
2022-09-27T13:05:10.072Z,99.10
2022-09-27T13:07:54.564Z,99.90
2022-09-27T13:10:41.638Z,99.90
2022-09-27T13:13:12.956Z,99.90
2022-09-27T13:15:41.469Z,99.90
2022-09-27T13:18:31.497Z,99.90
2022-09-27T13:21:00.036Z,99.90
2022-09-27T13:23:57.946Z,99.90
2022-09-27T13:26:44.927Z,99.90
2022-09-27T13:29:26.231Z,99.90
2022-09-27T13:32:20.383Z,99.90
2022-09-27T13:34:50.599Z,99.90
2022-09-27T13:37:51.658Z,99.90
2022-09-27T13:40:32.397Z,99.90
2022-09-27T13:43:35.312Z,99.90
2022-09-27T13:46:09.431Z,99.90
2022-09-27T13:48:49.957Z,99.90
2022-09-27T13:51:23.748Z,99.90
2022-09-27T13:54:00.293Z,99.90
2022-09-27T13:56:50.607Z,99.90
2022-09-27T13:59:24.706Z,99.90
2022-09-27T14:01:55.420Z,99.90
2022-09-27T14:04:27.067Z,99.90
2022-09-27T14:07:02.917Z,99.90
2022-09-27T14:09:34.016Z,99.90
2022-09-27T14:12:19.064Z,99.90
2022-09-27T14:14:50.793Z,99.90
2022-09-27T14:17:18.902Z,99.90
2022-09-27T14:19:51.156Z,99.90
2022-09-27T14:22:23.286Z,99.90
2022-09-27T14:24:52.588Z,99.90
2022-09-27T14:27:23.819Z,99.90
2022-09-27T14:29:56.971Z,99.90
2022-09-27T14:32:26.868Z,99.90
2022-09-27T14:35:06.826Z,99.90
2022-09-27T14:37:36.718Z,99.90
2022-09-27T14:40:08.179Z,99.90
2022-09-27T14:42:39.910Z,99.90
2022-09-27T14:45:22.157Z,99.90
2022-09-27T14:47:51.673Z,99.90
2022-09-27T14:50:28.069Z,99.90
2022-09-27T14:52:57.608Z,99.90
2022-09-27T14:55:28.284Z,99.90
2022-09-27T14:58:00.110Z,99.90
2022-09-27T15:00:32.032Z,99.90
2022-09-27T15:03:04.945Z,99.90
2022-09-27T15:05:34.605Z,99.90
2022-09-27T15:08:05.814Z,99.90
2022-09-27T15:10:38.158Z,99.90
2022-09-27T15:13:07.915Z,99.90
2022-09-27T15:15:39.786Z,99.90
2022-09-27T15:18:41.316Z,99.90
2022-09-27T15:21:10.822Z,99.90
2022-09-27T15:23:40.520Z,99.90
2022-09-27T15:26:14.266Z,99.90
2022-09-27T15:28:46.917Z,99.90
2022-09-27T15:31:16.660Z,99.90
2022-09-27T15:33:54.440Z,99.90
2022-09-27T15:36:53.746Z,99.90
2022-09-27T15:39:28.303Z,99.90
2022-09-27T15:42:06.301Z,99.90
2022-09-27T15:44:47.934Z,99.90
2022-09-27T15:47:43.443Z,99.90
2022-09-27T15:50:37.239Z,99.90
2022-09-27T15:53:06.913Z,99.90
2022-09-27T15:55:40.285Z,99.90
2022-09-27T15:58:16.377Z,99.90
2022-09-27T16:00:56.769Z,99.90
2022-09-27T16:03:26.176Z,99.90
2022-09-27T16:05:55.471Z,99.90
2022-09-27T16:08:23.665Z,99.90
2022-09-27T16:10:53.445Z,99.90
2022-09-27T16:13:21.967Z,99.90
2022-09-27T16:15:52.887Z,99.90
2022-09-27T16:18:22.349Z,99.90
2022-09-27T16:20:50.416Z,99.90
2022-09-27T16:23:18.436Z,99.90
2022-09-27T16:25:46.482Z,99.90
2022-09-27T16:28:14.463Z,99.90
2022-09-27T16:30:42.395Z,99.90
2022-09-27T16:33:10.474Z,99.90
2022-09-27T16:35:42.110Z,99.90
2022-09-27T16:38:10.171Z,99.90
2022-09-27T16:40:38.897Z,99.90
2022-09-27T16:43:08.104Z,99.90
2022-09-27T16:45:36.744Z,99.90
2022-09-27T16:48:04.964Z,99.90
2022-09-27T16:50:51.347Z,99.90
2022-09-27T16:53:21.172Z,99.90
2022-09-27T16:55:49.086Z,99.90
2022-09-27T16:58:17.001Z,99.90
2022-09-27T17:00:45.387Z,99.90
2022-09-27T17:03:13.444Z,99.90
2022-09-27T17:05:41.393Z,99.90
2022-09-27T17:08:09.312Z,99.90
2022-09-27T17:10:45.155Z,99.90
2022-09-27T17:13:13.506Z,99.90
2022-09-27T17:15:41.647Z,99.90
2022-09-27T17:18:09.822Z,99.90
2022-09-27T17:20:37.782Z,99.90
2022-09-27T17:23:08.492Z,99.90
2022-09-27T17:25:38.546Z,99.90
2022-09-27T17:28:06.706Z,99.90
2022-09-27T17:30:35.301Z,99.90
2022-09-27T17:33:04.708Z,99.90
2022-09-27T17:35:35.191Z,99.90
2022-09-27T17:38:05.755Z,99.90
2022-09-27T17:40:34.498Z,99.90
2022-09-27T17:43:06.795Z,99.90
2022-09-27T17:45:35.438Z,99.90
2022-09-27T17:48:21.221Z,99.90
2022-09-27T17:50:49.176Z,99.90
2022-09-27T17:53:17.148Z,99.90
2022-09-27T17:55:45.438Z,99.90
2022-09-27T17:58:16.925Z,99.90
2022-09-27T18:00:45.094Z,99.90
2022-09-27T18:03:15.757Z,99.90
2022-09-27T18:05:43.846Z,99.90
2022-09-27T18:08:11.828Z,99.90
2022-09-27T18:10:40.287Z,99.90
2022-09-27T18:13:12.853Z,99.90
2022-09-27T18:15:43.272Z,99.90
2022-09-27T18:18:11.274Z,99.90
2022-09-27T18:20:39.171Z,99.90
2022-09-27T18:23:09.677Z,99.90
2022-09-27T18:25:40.139Z,99.90
2022-09-27T18:28:09.812Z,99.90
2022-09-27T18:30:37.767Z,99.90
2022-09-27T18:33:07.094Z,99.90
2022-09-27T18:35:36.069Z,99.90
2022-09-27T18:38:03.954Z,99.90
2022-09-27T18:40:54.538Z,99.90
2022-09-27T18:43:22.482Z,99.90
2022-09-27T18:46:01.378Z,99.90
2022-09-27T18:48:44.680Z,99.90
2022-09-27T18:51:14.976Z,99.90
2022-09-27T18:53:43.418Z,99.90
2022-09-27T18:56:13.165Z,99.90
2022-09-27T18:58:44.754Z,99.90
2022-09-27T19:01:15.437Z,99.90
2022-09-27T19:03:45.153Z,99.90
2022-09-27T19:06:15.638Z,99.90
2022-09-27T19:08:44.267Z,99.90
2022-09-27T19:11:14.132Z,99.90
2022-09-27T19:13:50.903Z,99.90
2022-09-27T19:16:20.849Z,99.90
2022-09-27T19:18:51.041Z,99.90
2022-09-27T19:21:21.018Z,99.90
2022-09-27T19:23:49.899Z,99.90
2022-09-27T19:26:19.760Z,99.90
2022-09-27T19:28:48.444Z,99.90
2022-09-27T19:31:18.617Z,99.90
2022-09-27T19:33:46.596Z,99.90
2022-09-27T19:36:17.833Z,99.90
2022-09-27T19:38:46.712Z,99.90
2022-09-27T19:41:17.307Z,99.90
2022-09-27T19:43:47.322Z,99.90
2022-09-27T19:46:17.226Z,99.90
2022-09-27T19:48:46.756Z,99.90
2022-09-27T19:51:17.855Z,99.90
2022-09-27T19:53:45.871Z,99.90
2022-09-27T19:56:14.607Z,99.90
2022-09-27T19:58:44.025Z,99.90
2022-09-27T20:01:13.517Z,99.90
2022-09-27T20:03:43.227Z,99.90
2022-09-27T20:06:12.785Z,99.90
2022-09-27T20:08:45.074Z,99.90
2022-09-27T20:11:15.431Z,99.90
2022-09-27T20:13:45.516Z,99.90
2022-09-27T20:16:15.364Z,99.90
2022-09-27T20:18:46.857Z,99.90
2022-09-27T20:21:15.577Z,99.90
2022-09-27T20:23:45.204Z,99.90
2022-09-27T20:26:15.781Z,99.90
2022-09-27T20:28:45.195Z,99.90
2022-09-27T20:31:14.740Z,99.90
2022-09-27T20:33:43.608Z,99.90
2022-09-27T20:36:13.365Z,99.90
2022-09-27T20:38:42.115Z,99.90
2022-09-27T20:41:12.297Z,99.90
2022-09-27T20:43:40.807Z,99.90
2022-09-27T20:46:11.449Z,99.90
2022-09-27T20:48:41.376Z,99.90
2022-09-27T20:51:11.072Z,99.90
2022-09-27T20:53:39.018Z,99.90
2022-09-27T20:56:19.185Z,99.90
2022-09-27T20:58:47.637Z,99.90
2022-09-27T21:01:16.433Z,99.90
2022-09-27T21:03:44.461Z,99.90
2022-09-27T21:06:13.976Z,99.90
2022-09-27T21:08:42.180Z,99.90
2022-09-27T21:11:11.575Z,99.90
2022-09-27T21:13:42.092Z,99.90
2022-09-27T21:16:14.247Z,99.90
2022-09-27T21:18:42.958Z,99.90
2022-09-27T21:21:12.675Z,99.90
2022-09-27T21:23:44.643Z,99.90
2022-09-27T21:26:14.619Z,99.90
2022-09-27T21:28:45.567Z,99.90
2022-09-27T21:31:20.140Z,99.90
2022-09-27T21:33:53.428Z,99.90
2022-09-27T21:36:23.107Z,99.90
2022-09-27T21:38:51.344Z,99.90
2022-09-27T21:41:19.944Z,99.90
2022-09-27T21:43:49.915Z,99.90
2022-09-27T21:46:23.283Z,99.90
2022-09-27T21:48:53.163Z,99.90
2022-09-27T21:51:23.029Z,99.90
2022-09-27T21:53:52.865Z,99.90
2022-09-27T21:56:21.736Z,99.90
2022-09-27T21:58:51.116Z,99.90
2022-09-27T22:01:21.726Z,99.90
2022-09-27T22:03:51.442Z,99.90
2022-09-27T22:06:21.187Z,99.90
2022-09-27T22:08:50.033Z,99.90
2022-09-27T22:11:20.553Z,99.90
2022-09-27T22:13:50.150Z,99.90
2022-09-27T22:16:20.021Z,99.90
2022-09-27T22:18:49.890Z,99.90
2022-09-27T22:21:19.598Z,99.90
2022-09-27T22:23:47.703Z,99.90
2022-09-27T22:26:17.339Z,99.90
2022-09-27T22:28:46.520Z,99.90
2022-09-27T22:31:18.475Z,99.90
2022-09-27T22:33:50.174Z,99.90
2022-09-27T22:36:18.572Z,99.90
2022-09-27T22:38:47.587Z,99.90
2022-09-27T22:41:16.072Z,99.90
2022-09-27T22:43:44.610Z,99.90
2022-09-27T22:46:13.056Z,99.90
2022-09-27T22:48:43.326Z,99.90
2022-09-27T22:51:12.755Z,99.90
2022-09-27T22:53:40.806Z,99.90
2022-09-27T22:56:11.639Z,99.90
2022-09-27T22:58:39.581Z,99.90
2022-09-27T23:01:12.245Z,99.90
2022-09-27T23:03:40.355Z,99.90
2022-09-27T23:06:09.839Z,99.90
2022-09-27T23:08:38.993Z,99.90
2022-09-27T23:11:08.891Z,99.90
2022-09-27T23:13:38.557Z,99.90
2022-09-27T23:16:08.905Z,99.90
2022-09-27T23:18:37.243Z,99.90
2022-09-27T23:21:08.262Z,99.90
2022-09-27T23:23:40.643Z,99.90
2022-09-27T23:26:10.569Z,99.90
2022-09-27T23:28:38.592Z,99.90
2022-09-27T23:31:08.393Z,99.90
2022-09-27T23:33:36.951Z,99.90
2022-09-27T23:36:05.267Z,99.90
2022-09-27T23:38:33.641Z,99.90
2022-09-27T23:41:02.938Z,99.90
2022-09-27T23:43:30.920Z,99.90
2022-09-27T23:45:58.897Z,99.90
2022-09-27T23:48:27.110Z,99.90
2022-09-27T23:50:55.288Z,99.90
2022-09-27T23:53:23.525Z,99.90
2022-09-27T23:56:02.565Z,99.90
2022-09-27T23:58:33.503Z,99.90
